Akron Canton Regional Airport
KCAK : rendu visible

Aérodrome :











RETROUVEZ-NOUS SUR...

 
LOGIN :

S'inscrire | Disclaimer

   EN    FR    IT 

 









Légende :    VFR   VFR Marginal   IFR   IFR Intensif   IFR Très Intensif
Visi : 
Plafond : 
>= 8 km
>= 3000ft
5 à 8 km
1000 à 3000 ft
1500m à 5 km
500 à 1000 ft
800 à 1500m
200 à 500 ft
< 800m
< 200 ft
Symboles :   Orages  Brouillard  Fortes neiges  Fortes précipitations  Vent > 20 kt






- Altitude de l'aérodrome : 1228 ft
- Code IATA : CAK


KCAK - Akron Canton Regional

DERNIER METAR :
  • 180151Z 19007KT 10SM CLR 21/10 A3002 RMK AO2 SLP158 T02110100

METARs EXPIRÉS :
  • 180051Z 19006KT 10SM CLR 22/11 A3001 RMK AO2 SLP156 T02220106
  • 172351Z 20008KT 10SM CLR 25/11 A3001 RMK AO2 SLP156 T02500106 10267 20250 58004

TAF KCAK
Valide du 18 à 00h jusqu'au 19 à 00h UTC


172337Z 1800/1824 19008KT P6SM FEW250
FM181600 22012G20KT P6SM VCSH BKN050
FIR KZOB / Amérique du Nord



MET'MAP, la Météo Aéronautique d'un coup d'oeil ! - Copyright ORBIFLY Décembre 2007 - Disclaimer

ORBIFLY MET'MAP TEAM :

Programmation & Développement : Alexandra Zaïnal
Sur une idée originale de : Baudouin d'Aumeries
Assistance à la programmation : Marc-Olivier Méhu
Soutien technique & logistique : Manuel Goepfert

Contact : metmap@orbifly.com




SOURCES & CREDITS :

   NOAA       Earth
Advisory